createdAt,value
2022-08-23T00:00:13.191Z,6.97
2022-08-23T00:02:43.373Z,6.57
2022-08-23T00:05:11.819Z,6.47
2022-08-23T00:07:43.689Z,6.47
2022-08-23T00:10:14.184Z,6.47
2022-08-23T00:12:43.370Z,6.22
2022-08-23T00:15:14.540Z,6.93
2022-08-23T00:17:43.901Z,5.93
2022-08-23T00:20:15.863Z,7.00
2022-08-23T00:22:45.644Z,7.40
2022-08-23T00:25:15.388Z,7.22
2022-08-23T00:27:43.583Z,7.28
2022-08-23T00:30:14.670Z,6.95
2022-08-23T00:32:43.895Z,6.95
2022-08-23T00:35:27.153Z,5.68
2022-08-23T00:38:31.740Z,7.70
2022-08-23T00:40:51.334Z,6.68
2022-08-23T00:43:41.344Z,6.13
2022-08-23T00:46:34.480Z,7.13
2022-08-23T00:49:05.573Z,7.10
2022-08-23T00:51:50.728Z,6.97
2022-08-23T00:54:24.680Z,5.80
2022-08-23T00:56:54.049Z,8.02
2022-08-23T00:59:22.164Z,7.95
2022-08-23T01:01:50.525Z,6.80
2022-08-23T01:04:19.235Z,9.25
2022-08-23T01:06:52.989Z,7.13
2022-08-23T01:09:23.741Z,7.95
2022-08-23T01:11:58.581Z,8.85
2022-08-23T01:14:31.181Z,6.88
2022-08-23T01:17:05.674Z,8.68
2022-08-23T01:19:37.308Z,7.93
2022-08-23T01:22:12.292Z,9.63
2022-08-23T01:25:07.091Z,8.27
2022-08-23T01:27:33.156Z,9.00
2022-08-23T01:30:01.403Z,9.55
2022-08-23T01:32:29.966Z,9.35
2022-08-23T01:34:58.052Z,11.05
2022-08-23T01:37:26.152Z,9.90
2022-08-23T01:39:55.601Z,11.32
2022-08-23T01:42:23.713Z,9.07
2022-08-23T01:44:51.783Z,6.32
2022-08-23T01:47:19.872Z,6.43
2022-08-23T01:49:48.000Z,7.47
2022-08-23T01:52:17.296Z,6.20
2022-08-23T01:54:45.366Z,5.88
2022-08-23T01:57:15.135Z,6.40
2022-08-23T01:59:45.062Z,6.22
2022-08-23T02:02:13.080Z,6.93
2022-08-23T02:04:41.147Z,6.63
2022-08-23T02:07:09.294Z,6.32
2022-08-23T02:09:37.628Z,6.97
2022-08-23T02:12:06.072Z,6.47
2022-08-23T02:14:37.239Z,7.70
2022-08-23T02:17:09.310Z,6.45
2022-08-23T02:19:40.149Z,6.25
2022-08-23T02:22:10.289Z,7.38
2022-08-23T02:24:42.021Z,5.97
2022-08-23T02:27:10.777Z,5.95
2022-08-23T02:29:40.370Z,6.38
2022-08-23T02:32:14.262Z,6.93
2022-08-23T02:34:44.173Z,6.18
2022-08-23T02:37:19.148Z,7.53
2022-08-23T02:39:47.284Z,5.18
2022-08-23T02:42:15.471Z,6.40
2022-08-23T02:44:45.173Z,6.30
2022-08-23T02:47:13.219Z,6.32
2022-08-23T02:49:41.352Z,4.90
2022-08-23T02:52:09.624Z,4.85
2022-08-23T02:54:37.861Z,4.82
2022-08-23T02:57:06.606Z,4.93
2022-08-23T02:59:35.439Z,4.90
2022-08-23T03:02:05.009Z,4.72
2022-08-23T03:04:33.166Z,4.32
2022-08-23T03:07:01.359Z,4.50
2022-08-23T03:09:29.549Z,5.18
2022-08-23T03:11:57.644Z,4.10
2022-08-23T03:14:27.651Z,4.05
2022-08-23T03:16:57.439Z,3.53
2022-08-23T03:19:27.914Z,4.05
2022-08-23T03:21:56.006Z,3.60
2022-08-23T03:24:24.072Z,5.30
2022-08-23T03:26:52.368Z,4.15
2022-08-23T03:29:20.704Z,3.67
2022-08-23T03:31:48.791Z,3.97
2022-08-23T03:34:16.892Z,4.00
2022-08-23T03:36:46.364Z,3.85
2022-08-23T03:39:14.966Z,3.38
2022-08-23T03:41:42.974Z,3.83
2022-08-23T03:44:10.988Z,3.42
2022-08-23T03:46:39.212Z,4.05
2022-08-23T03:49:07.365Z,5.82
2022-08-23T03:51:35.908Z,4.70
2022-08-23T03:54:05.730Z,4.45
2022-08-23T03:56:36.668Z,5.18
2022-08-23T03:59:07.445Z,4.97
2022-08-23T04:01:36.598Z,4.25
2022-08-23T04:04:05.334Z,4.97
2022-08-23T04:06:34.063Z,4.30
2022-08-23T04:09:02.124Z,4.03
2022-08-23T04:11:31.876Z,4.25
2022-08-23T04:13:59.989Z,4.10
2022-08-23T04:16:29.031Z,4.70
2022-08-23T04:18:57.431Z,4.97
2022-08-23T04:21:26.123Z,5.45
2022-08-23T04:23:54.207Z,4.10
2022-08-23T04:26:23.062Z,3.60
2022-08-23T04:28:55.613Z,4.13
2022-08-23T04:31:24.916Z,3.80
2022-08-23T04:33:53.129Z,4.03
2022-08-23T04:36:23.421Z,3.72
2022-08-23T04:38:52.043Z,4.40
2022-08-23T04:41:38.404Z,4.13
2022-08-23T04:44:08.103Z,4.88
2022-08-23T04:46:36.370Z,4.55
2022-08-23T04:49:05.024Z,5.25
2022-08-23T04:51:33.071Z,4.88
2022-08-23T04:54:01.152Z,5.88
2022-08-23T04:56:29.589Z,5.68
2022-08-23T04:58:57.989Z,5.72
2022-08-23T05:01:30.704Z,5.38
2022-08-23T05:04:00.669Z,6.75
2022-08-23T05:06:29.680Z,5.20
2022-08-23T05:08:57.887Z,4.82
2022-08-23T05:11:29.326Z,5.10
2022-08-23T05:13:57.684Z,5.03
2022-08-23T05:16:28.507Z,5.15
2022-08-23T05:18:59.111Z,3.97
2022-08-23T05:21:28.457Z,3.40
2022-08-23T05:23:59.594Z,3.90
2022-08-23T05:26:28.355Z,3.22
2022-08-23T05:28:56.622Z,2.90
2022-08-23T05:31:30.590Z,3.17
2022-08-23T05:33:59.841Z,3.90
2022-08-23T05:36:29.113Z,3.13
2022-08-23T05:38:58.834Z,3.10
2022-08-23T05:41:33.350Z,2.95
2022-08-23T05:44:07.629Z,3.95
2022-08-23T05:46:39.146Z,3.30
2022-08-23T05:49:07.485Z,4.07
2022-08-23T05:51:36.705Z,4.00
2022-08-23T05:54:09.777Z,4.28
2022-08-23T05:56:41.888Z,3.35
2022-08-23T05:59:17.665Z,3.72
2022-08-23T06:01:47.450Z,4.05
2022-08-23T06:04:19.008Z,4.65
2022-08-23T06:06:48.811Z,4.38
2022-08-23T06:09:19.535Z,4.13
2022-08-23T06:11:50.877Z,3.80
2022-08-23T06:14:20.598Z,4.88
2022-08-23T06:16:55.789Z,4.85
2022-08-23T06:19:25.602Z,5.97
2022-08-23T06:21:55.953Z,5.80
2022-08-23T06:24:27.141Z,4.90
2022-08-23T06:26:57.738Z,4.43
2022-08-23T06:29:26.720Z,5.55
2022-08-23T06:31:56.907Z,5.30
2022-08-23T06:34:27.875Z,6.95
2022-08-23T06:36:59.757Z,4.70
2022-08-23T06:39:36.780Z,3.75
2022-08-23T06:42:34.487Z,4.05
2022-08-23T06:44:57.321Z,4.03
2022-08-23T06:47:27.417Z,3.38
2022-08-23T06:49:58.263Z,4.80
2022-08-23T06:52:41.685Z,3.75
2022-08-23T06:55:13.626Z,3.40
2022-08-23T06:57:43.208Z,3.53
2022-08-23T07:00:22.108Z,4.13
2022-08-23T07:02:57.529Z,4.07
2022-08-23T07:05:27.676Z,3.80
2022-08-23T07:08:07.448Z,3.67
2022-08-23T07:10:35.910Z,3.65
2022-08-23T07:15:50.125Z,6.22
2022-08-23T07:18:41.207Z,5.53
2022-08-23T07:21:11.034Z,4.38
2022-08-23T07:23:42.006Z,4.63
2022-08-23T07:26:17.444Z,4.38
2022-08-23T07:28:47.241Z,5.50
2022-08-23T07:31:18.220Z,5.30
2022-08-23T07:33:48.596Z,5.53
2022-08-23T07:36:19.436Z,5.50
2022-08-23T07:38:51.458Z,4.95
2022-08-23T07:41:20.597Z,5.43
2022-08-23T07:43:49.038Z,5.65
2022-08-23T07:46:37.411Z,5.78
2022-08-23T07:49:08.314Z,5.75
2022-08-23T07:51:39.284Z,5.80
2022-08-23T07:54:11.396Z,5.13
2022-08-23T07:56:43.328Z,5.90
2022-08-23T07:59:13.441Z,5.35
2022-08-23T08:01:45.870Z,6.43
2022-08-23T08:04:16.294Z,5.68
2022-08-23T08:06:59.793Z,5.78
2022-08-23T08:09:39.734Z,5.97
2022-08-23T08:12:17.638Z,6.22
2022-08-23T08:17:48.274Z,5.68
2022-08-23T08:20:24.571Z,5.95
2022-08-23T08:22:58.612Z,5.32
2022-08-23T08:25:42.253Z,4.88
2022-08-23T08:28:15.945Z,5.50
2022-08-23T08:30:48.779Z,5.57
2022-08-23T08:36:34.164Z,6.07
2022-08-23T08:39:07.259Z,6.45
2022-08-23T08:42:05.418Z,6.03
2022-08-23T08:44:42.627Z,6.60
2022-08-23T08:47:19.141Z,6.20
2022-08-23T08:53:05.714Z,5.97
2022-08-23T08:55:40.993Z,7.03
2022-08-23T08:58:17.419Z,6.10
2022-08-23T09:00:47.385Z,6.47
2022-08-23T09:03:28.899Z,6.10
2022-08-23T09:06:26.913Z,6.43
2022-08-23T09:09:11.897Z,5.70
2022-08-23T09:11:58.381Z,6.60
2022-08-23T09:14:43.396Z,5.72
2022-08-23T09:17:22.992Z,5.90
2022-08-23T09:19:54.539Z,6.50
2022-08-23T09:25:44.157Z,7.72
2022-08-23T09:28:16.862Z,6.60
2022-08-23T09:30:58.215Z,6.50
2022-08-23T09:33:38.249Z,6.50
2022-08-23T09:36:16.653Z,6.30
2022-08-23T09:38:54.831Z,6.82
2022-08-23T09:41:29.665Z,6.43
2022-08-23T09:44:03.139Z,6.22
2022-08-23T09:46:36.160Z,6.85
2022-08-23T09:49:31.073Z,6.05
2022-08-23T09:52:03.429Z,6.07
2022-08-23T09:54:35.714Z,6.00
2022-08-23T09:57:10.241Z,6.47
2022-08-23T09:59:44.641Z,6.80
2022-08-23T10:02:27.219Z,6.40
2022-08-23T10:05:03.094Z,5.47
2022-08-23T10:07:45.671Z,5.47
2022-08-23T10:10:23.929Z,5.78
2022-08-23T10:12:59.445Z,5.95
2022-08-23T10:15:42.110Z,5.25
2022-08-23T10:18:24.318Z,4.60
2022-08-23T10:21:00.733Z,5.43
2022-08-23T10:23:41.117Z,5.03
2022-08-23T10:26:19.761Z,4.82
2022-08-23T10:29:14.391Z,4.70
2022-08-23T10:31:53.952Z,4.90
2022-08-23T10:34:46.006Z,4.35
2022-08-23T10:37:48.414Z,4.30
2022-08-23T10:40:24.552Z,5.35
2022-08-23T10:43:21.074Z,4.25
2022-08-23T10:48:51.679Z,4.75
2022-08-23T10:51:31.474Z,4.50
2022-08-23T10:54:06.614Z,4.57
2022-08-23T10:56:44.459Z,4.20
2022-08-23T10:59:24.224Z,5.82
2022-08-23T11:02:01.793Z,4.35
2022-08-23T11:04:38.388Z,4.65
2022-08-23T11:07:21.108Z,4.25
2022-08-23T11:09:55.226Z,3.85
2022-08-23T11:12:31.747Z,3.90
2022-08-23T11:15:15.802Z,3.70
2022-08-23T11:18:00.613Z,4.20
2022-08-23T11:21:05.392Z,3.78
2022-08-23T11:23:47.248Z,4.30
2022-08-23T11:27:07.135Z,4.18
2022-08-23T11:29:41.458Z,4.13
2022-08-23T11:32:33.585Z,4.20
2022-08-23T11:35:43.245Z,3.72
2022-08-23T11:38:12.919Z,3.85
2022-08-23T11:43:50.231Z,3.60
2022-08-23T11:46:36.061Z,4.85
2022-08-23T11:49:50.848Z,4.80
2022-08-23T11:52:36.561Z,4.13
2022-08-23T11:55:31.980Z,4.28
2022-08-23T11:58:17.221Z,3.83
2022-08-23T12:01:06.904Z,3.80
2022-08-23T12:03:45.808Z,3.80
2022-08-23T12:06:40.699Z,3.95
2022-08-23T12:09:30.142Z,3.40
2022-08-23T12:12:32.469Z,4.10
2022-08-23T12:15:07.504Z,3.80
2022-08-23T12:18:14.913Z,3.53
2022-08-23T12:20:48.450Z,3.40
2022-08-23T12:23:22.200Z,4.30
2022-08-23T12:26:11.849Z,4.00
2022-08-23T12:28:48.575Z,2.53
2022-08-23T12:31:27.457Z,3.55
2022-08-23T12:34:24.220Z,2.80
2022-08-23T12:37:05.444Z,2.60
2022-08-23T12:39:40.177Z,2.35
2022-08-23T12:42:15.928Z,2.17
2022-08-23T12:44:46.479Z,2.20
2022-08-23T12:47:19.831Z,2.35
2022-08-23T12:50:00.511Z,2.28
2022-08-23T12:52:35.209Z,2.22
2022-08-23T12:55:06.981Z,2.53
2022-08-23T12:57:42.399Z,2.20
2022-08-23T13:00:20.375Z,2.40
2022-08-23T13:02:56.021Z,2.55
2022-08-23T13:05:52.969Z,2.45
2022-08-23T13:08:33.618Z,2.70
2022-08-23T13:11:08.118Z,2.70
2022-08-23T13:13:42.735Z,2.67
2022-08-23T13:16:31.427Z,2.95
2022-08-23T13:19:23.910Z,2.95
2022-08-23T13:22:11.842Z,2.70
2022-08-23T13:24:44.136Z,2.30
2022-08-23T13:27:28.885Z,2.63
2022-08-23T13:30:24.743Z,2.90
2022-08-23T13:33:00.085Z,2.53
2022-08-23T13:38:39.801Z,2.90
2022-08-23T13:50:35.891Z,2.80
2022-08-23T13:53:15.847Z,2.30
2022-08-23T13:55:48.645Z,3.47
2022-08-23T13:58:30.372Z,3.35
2022-08-23T14:01:00.864Z,3.30
2022-08-23T14:03:36.009Z,4.00
2022-08-23T14:06:08.635Z,3.90
2022-08-23T14:08:36.961Z,3.42
2022-08-23T14:11:06.229Z,4.20
2022-08-23T14:13:37.790Z,3.90
2022-08-23T14:21:48.926Z,3.92
2022-08-23T14:24:22.396Z,5.25
2022-08-23T14:27:00.663Z,5.05
2022-08-23T14:29:30.227Z,4.53
2022-08-23T14:32:00.330Z,4.28
2022-08-23T14:34:30.350Z,4.85
2022-08-23T14:39:49.501Z,4.45
2022-08-23T14:42:21.539Z,4.10
2022-08-23T14:44:50.833Z,3.15
2022-08-23T14:47:19.868Z,3.85
2022-08-23T14:49:53.251Z,2.85
2022-08-23T14:52:24.934Z,2.53
2022-08-23T14:54:53.358Z,2.80
2022-08-23T14:57:25.911Z,2.97
2022-08-23T14:59:54.303Z,2.22
2022-08-23T15:02:26.002Z,2.83
2022-08-23T15:04:54.825Z,2.90
2022-08-23T15:07:25.393Z,3.05
2022-08-23T15:09:55.691Z,2.95
2022-08-23T15:15:16.266Z,3.75
2022-08-23T15:17:48.859Z,3.72
2022-08-23T15:20:17.207Z,2.97
2022-08-23T15:22:55.464Z,3.40
2022-08-23T15:25:25.956Z,3.65
2022-08-23T15:27:54.896Z,4.00
2022-08-23T15:30:25.596Z,3.72
2022-08-23T15:33:02.471Z,3.88
2022-08-23T15:35:41.780Z,7.07
2022-08-23T15:38:13.364Z,5.20
2022-08-23T15:40:42.089Z,4.47
2022-08-23T15:43:10.658Z,4.13
2022-08-23T15:45:41.001Z,8.57
2022-08-23T15:48:21.308Z,4.43
2022-08-23T15:50:50.451Z,5.63
2022-08-23T15:53:23.528Z,6.57
2022-08-23T15:55:54.357Z,5.25
2022-08-23T15:58:25.162Z,4.05
2022-08-23T16:00:54.910Z,4.55
2022-08-23T16:03:25.205Z,4.95
2022-08-23T16:08:43.280Z,4.35
2022-08-23T16:11:15.102Z,5.00
2022-08-23T16:13:46.196Z,7.38
2022-08-23T16:16:19.351Z,6.88
2022-08-23T16:18:48.925Z,7.93
2022-08-23T16:21:17.495Z,5.82
2022-08-23T16:23:49.143Z,5.05
2022-08-23T16:26:21.542Z,8.10
2022-08-23T16:28:53.925Z,5.70
2022-08-23T16:31:22.947Z,5.82
2022-08-23T16:34:10.817Z,4.65
2022-08-23T16:36:41.165Z,4.70
2022-08-23T16:39:11.933Z,4.05
2022-08-23T16:41:41.054Z,4.40
2022-08-23T16:44:10.253Z,4.57
2022-08-23T16:46:41.304Z,4.50
2022-08-23T16:49:10.545Z,4.75
2022-08-23T16:51:40.965Z,5.30
2022-08-23T16:54:10.640Z,4.93
2022-08-23T16:56:41.064Z,4.80
2022-08-23T16:59:12.787Z,5.18
2022-08-23T17:01:50.244Z,4.85
2022-08-23T17:04:20.282Z,6.03
2022-08-23T17:06:48.668Z,5.65
2022-08-23T17:09:18.339Z,6.25
2022-08-23T17:11:46.560Z,5.03
2022-08-23T17:14:15.071Z,5.25
2022-08-23T17:16:44.245Z,4.82
2022-08-23T17:19:14.978Z,6.40
2022-08-23T17:21:45.932Z,5.13
2022-08-23T17:24:14.370Z,5.72
2022-08-23T17:26:44.515Z,5.05
2022-08-23T17:29:13.076Z,5.63
2022-08-23T17:31:43.448Z,5.78
2022-08-23T17:34:12.846Z,4.22
2022-08-23T17:36:49.185Z,4.40
2022-08-23T17:39:24.925Z,4.75
2022-08-23T17:41:54.741Z,5.53
2022-08-23T17:44:23.220Z,5.03
2022-08-23T17:46:53.102Z,4.82
2022-08-23T17:49:21.855Z,5.80
2022-08-23T17:51:52.848Z,4.75
2022-08-23T17:54:22.454Z,4.25
2022-08-23T17:56:51.031Z,4.55
2022-08-23T17:59:22.432Z,4.25
2022-08-23T18:01:52.238Z,3.78
2022-08-23T18:04:21.274Z,3.72
2022-08-23T18:06:50.497Z,6.60
2022-08-23T18:09:19.249Z,4.35
2022-08-23T18:11:48.690Z,4.38
2022-08-23T18:14:18.080Z,5.13
2022-08-23T18:16:47.991Z,4.20
2022-08-23T18:19:17.119Z,4.70
2022-08-23T18:21:46.770Z,4.50
2022-08-23T18:24:15.669Z,4.22
2022-08-23T18:27:01.663Z,4.68
2022-08-23T18:29:32.793Z,5.80
2022-08-23T18:32:02.647Z,3.97
2022-08-23T18:34:33.697Z,3.90
2022-08-23T18:37:02.166Z,4.32
2022-08-23T18:39:32.307Z,3.72
2022-08-23T18:42:01.112Z,5.05
2022-08-23T18:44:30.059Z,4.55
2022-08-23T18:46:58.353Z,3.65
2022-08-23T18:49:28.100Z,6.05
2022-08-23T18:51:56.627Z,3.22
2022-08-23T18:54:25.120Z,3.72
2022-08-23T18:56:53.286Z,3.63
2022-08-23T18:59:22.364Z,4.93
2022-08-23T19:01:50.716Z,3.30
2022-08-23T19:04:19.434Z,4.13
2022-08-23T19:06:49.377Z,4.05
2022-08-23T19:09:24.267Z,4.35
2022-08-23T19:11:52.452Z,4.03
2022-08-23T19:14:22.464Z,3.42
2022-08-23T19:16:52.968Z,3.50
2022-08-23T19:19:21.822Z,4.15
2022-08-23T19:21:51.570Z,3.45
2022-08-23T19:24:21.062Z,3.75
2022-08-23T19:26:49.832Z,4.25
2022-08-23T19:29:33.433Z,4.20
2022-08-23T19:32:05.888Z,3.58
2022-08-23T19:34:36.202Z,7.55
2022-08-23T19:37:18.591Z,5.95
2022-08-23T19:39:52.117Z,4.18
2022-08-23T19:42:21.048Z,4.78
2022-08-23T19:44:50.938Z,4.70
2022-08-23T19:47:21.154Z,5.43
2022-08-23T19:49:51.152Z,5.38
2022-08-23T19:52:22.610Z,4.55
2022-08-23T19:54:51.762Z,4.40
2022-08-23T19:57:22.949Z,4.70
2022-08-23T19:59:51.074Z,5.20
2022-08-23T20:02:19.858Z,6.65
2022-08-23T20:04:49.595Z,5.47
2022-08-23T20:07:17.734Z,6.40
2022-08-23T20:09:47.514Z,5.75
2022-08-23T20:12:17.537Z,5.43
2022-08-23T20:14:49.506Z,5.82
2022-08-23T20:17:18.280Z,5.75
2022-08-23T20:19:47.055Z,6.38
2022-08-23T20:22:41.337Z,5.40
2022-08-23T20:25:11.506Z,7.70
2022-08-23T20:27:39.893Z,5.22
2022-08-23T20:30:10.021Z,4.95
2022-08-23T20:32:39.820Z,6.10
2022-08-23T20:35:11.288Z,6.15
2022-08-23T20:37:40.448Z,6.40
2022-08-23T20:40:12.412Z,6.13
2022-08-23T20:42:41.345Z,4.60
2022-08-23T20:45:11.678Z,5.82
2022-08-23T20:47:41.353Z,5.35
2022-08-23T20:50:10.259Z,5.00
2022-08-23T20:52:38.341Z,6.53
2022-08-23T20:55:10.884Z,5.70
2022-08-23T20:57:40.602Z,4.65
2022-08-23T21:00:12.636Z,4.60
2022-08-23T21:02:41.389Z,4.65
2022-08-23T21:05:10.646Z,5.47
2022-08-23T21:07:38.832Z,4.80
2022-08-23T21:10:07.785Z,4.45
2022-08-23T21:15:21.404Z,4.65
2022-08-23T21:17:49.832Z,4.80
2022-08-23T21:20:20.181Z,4.97
2022-08-23T21:22:48.312Z,4.25
2022-08-23T21:25:17.445Z,5.53
2022-08-23T21:27:46.758Z,5.53
2022-08-23T21:30:16.179Z,6.32
2022-08-23T21:32:45.759Z,6.07
2022-08-23T21:35:14.970Z,5.93
2022-08-23T21:37:43.362Z,5.00
2022-08-23T21:40:13.150Z,4.70
2022-08-23T21:45:28.388Z,5.38
2022-08-23T21:47:58.733Z,4.55
2022-08-23T21:50:31.004Z,5.88
2022-08-23T21:52:59.134Z,5.72
2022-08-23T21:55:36.274Z,5.07
2022-08-23T21:58:05.462Z,5.65
2022-08-23T22:00:34.481Z,5.22
2022-08-23T22:03:06.550Z,5.20
2022-08-23T22:05:39.441Z,5.20
2022-08-23T22:08:07.568Z,5.57
2022-08-23T22:10:38.140Z,5.22
2022-08-23T22:13:12.590Z,7.50
2022-08-23T22:15:40.774Z,4.95
2022-08-23T22:18:10.376Z,5.53
2022-08-23T22:20:38.467Z,6.40
2022-08-23T22:23:06.460Z,5.13
2022-08-23T22:25:34.633Z,5.80
2022-08-23T22:28:03.125Z,5.07
2022-08-23T22:30:31.193Z,4.65
2022-08-23T22:32:59.252Z,4.63
2022-08-23T22:35:28.672Z,4.50
2022-08-23T22:38:13.273Z,5.70
2022-08-23T22:40:47.457Z,4.45
2022-08-23T22:43:15.673Z,4.30
2022-08-23T22:45:50.603Z,4.57
2022-08-23T22:48:19.152Z,5.70
2022-08-23T22:50:48.981Z,3.92
2022-08-23T22:53:17.602Z,4.65
2022-08-23T22:55:51.504Z,4.75
2022-08-23T22:58:19.649Z,3.70
2022-08-23T23:00:47.955Z,3.80
2022-08-23T23:03:16.216Z,3.47
2022-08-23T23:05:44.403Z,4.13
2022-08-23T23:08:29.022Z,3.83
2022-08-23T23:10:59.135Z,3.72
2022-08-23T23:13:29.368Z,4.85
2022-08-23T23:15:58.267Z,4.00
2022-08-23T23:18:27.693Z,3.60
2022-08-23T23:20:58.453Z,4.00
2022-08-23T23:23:29.492Z,3.95
2022-08-23T23:25:58.610Z,3.92
2022-08-23T23:28:27.669Z,4.18
2022-08-23T23:30:57.635Z,4.57
2022-08-23T23:33:26.023Z,3.83
2022-08-23T23:35:54.066Z,3.50
2022-08-23T23:38:22.335Z,3.45
2022-08-23T23:40:52.026Z,6.85
2022-08-23T23:43:20.128Z,4.00
2022-08-23T23:45:48.263Z,3.95
2022-08-23T23:48:16.461Z,8.38
2022-08-23T23:50:45.572Z,4.22
2022-08-23T23:53:15.259Z,4.13
2022-08-23T23:55:44.253Z,5.63
2022-08-23T23:58:13.703Z,5.05
